Time;durP1;ratioP1;P1;durP2;ratioP2;P2;SDS_P1;SDS_P2;PMS_P1;PMS_P2;Temp;Humidity;BMP_temperature;BMP_pressure;BME280_temperature;BME280_humidity;BME280_pressure;Samples;Min_cycle;Max_cycle;Signal;HPM_P1;HPM_P2
2023/08/03 00:01:34;;;;;;;10.03;2.57;;;;;;;;;;4911105;28;20480;-66
2023/08/03 00:04:00;;;;;;;11.33;1.43;;;;;;;;;;4910288;29;20476;-67
2023/08/03 00:06:27;;;;;;;6.43;1.60;;;;;;;;;;4910545;28;20531;-70
2023/08/03 00:08:53;;;;;;;7.83;1.43;;;;;;;;;;4911069;28;20813;-69
2023/08/03 00:11:19;;;;;;;9.47;1.33;;;;;;;;;;4905483;28;20451;-69
2023/08/03 00:13:45;;;;;;;9.53;2.00;;;;;;;;;;4910314;28;20452;-68
2023/08/03 00:16:11;;;;;;;9.47;1.43;;;;;;;;;;4909488;28;20920;-70
2023/08/03 00:18:37;;;;;;;2.67;1.73;;;;;;;;;;4911215;29;20479;-69
2023/08/03 00:21:03;;;;;;;8.17;2.03;;;;;;;;;;4909275;28;20467;-67
2023/08/03 00:23:29;;;;;;;5.73;1.50;;;;;;;;;;4910895;28;20999;-68
2023/08/03 00:25:55;;;;;;;3.20;1.53;;;;;;;;;;4910465;28;20449;-68
2023/08/03 00:28:22;;;;;;;6.57;1.60;;;;;;;;;;4911645;28;20460;-67
2023/08/03 00:30:48;;;;;;;11.63;2.37;;;;;;;;;;4901509;28;20448;-68
2023/08/03 00:33:14;;;;;;;2.00;1.90;;;;;;;;;;4905794;28;20541;-67
2023/08/03 00:35:40;;;;;;;6.93;1.47;;;;;;;;;;4906944;28;20945;-68
2023/08/03 00:38:06;;;;;;;6.53;1.50;;;;;;;;;;4910163;29;20463;-67
2023/08/03 00:40:32;;;;;;;5.60;1.63;;;;;;;;;;4896349;29;20849;-68
2023/08/03 00:42:59;;;;;;;3.50;1.20;;;;;;;;;;4890255;28;20576;-68
2023/08/03 00:45:25;;;;;;;9.27;2.40;;;;;;;;;;4908338;28;20956;-66
2023/08/03 00:47:50;;;;;;;6.70;1.60;;;;;;;;;;4910248;28;20469;-70
2023/08/03 00:50:16;;;;;;;4.27;1.60;;;;;;;;;;4910032;28;20453;-71
2023/08/03 00:52:42;;;;;;;4.93;1.87;;;;;;;;;;4910245;29;20921;-67
2023/08/03 00:55:08;;;;;;;7.70;1.73;;;;;;;;;;4910859;28;20448;-67
2023/08/03 00:57:34;;;;;;;4.90;1.77;;;;;;;;;;4910306;28;20535;-72
2023/08/03 01:00:00;;;;;;;7.10;2.20;;;;;;;;;;4909347;28;20452;-68
2023/08/03 01:02:26;;;;;;;10.80;1.87;;;;;;;;;;4910225;28;20921;-66
2023/08/03 01:04:52;;;;;;;3.47;2.27;;;;;;;;;;4910033;28;21039;-69
2023/08/03 01:07:21;;;;;;;7.27;1.90;;;;;;;;;;4910158;28;20535;-69
2023/08/03 01:09:47;;;;;;;6.70;2.00;;;;;;;;;;4910463;29;20429;-70
2023/08/03 01:12:13;;;;;;;3.90;1.60;;;;;;;;;;4910479;29;20795;-68
2023/08/03 01:14:39;;;;;;;15.00;2.43;;;;;;;;;;4910220;28;20487;-69
2023/08/03 01:17:05;;;;;;;11.70;1.70;;;;;;;;;;4908483;29;20854;-69
2023/08/03 01:19:31;;;;;;;6.83;2.67;;;;;;;;;;4908051;28;20456;-69
2023/08/03 01:21:57;;;;;;;8.43;1.90;;;;;;;;;;4908404;28;20476;-67
2023/08/03 01:24:25;;;;;;;3.43;1.70;;;;;;;;;;4909164;29;20433;-69
2023/08/03 01:26:51;;;;;;;8.07;1.73;;;;;;;;;;4909549;29;20444;-71
2023/08/03 01:29:17;;;;;;;4.87;1.77;;;;;;;;;;4909442;29;20440;-69
2023/08/03 01:31:43;;;;;;;3.77;1.93;;;;;;;;;;4909153;28;20960;-69
2023/08/03 01:34:09;;;;;;;4.63;2.70;;;;;;;;;;4908526;29;20551;-68
2023/08/03 01:36:35;;;;;;;2.53;1.67;;;;;;;;;;4910456;29;20425;-66
2023/08/03 01:39:08;;;;;;;5.87;1.90;;;;;;;;;;4909767;28;20857;-68
2023/08/03 01:41:35;;;;;;;7.73;1.83;;;;;;;;;;4910853;29;20440;-68
2023/08/03 01:44:13;;;;;;;5.10;1.60;;;;;;;;;;4912663;28;20441;-67
2023/08/03 01:46:39;;;;;;;9.90;1.77;;;;;;;;;;4912809;28;20464;-70
2023/08/03 01:49:05;;;;;;;7.50;1.40;;;;;;;;;;4911048;29;20484;-66
2023/08/03 01:51:31;;;;;;;4.00;1.23;;;;;;;;;;4910767;29;20449;-69
2023/08/03 01:53:57;;;;;;;8.50;2.27;;;;;;;;;;4910939;28;20456;-68
2023/08/03 01:56:23;;;;;;;3.20;1.37;;;;;;;;;;4916337;28;20519;-68
2023/08/03 01:58:49;;;;;;;13.53;2.07;;;;;;;;;;4912988;28;20440;-68
2023/08/03 02:01:15;;;;;;;9.43;1.70;;;;;;;;;;4909179;28;20510;-67
2023/08/03 02:03:41;;;;;;;3.80;1.43;;;;;;;;;;4912527;28;20530;-69
2023/08/03 02:06:06;;;;;;;4.77;1.30;;;;;;;;;;4913365;29;20459;-68
2023/08/03 02:08:32;;;;;;;7.97;1.63;;;;;;;;;;4913231;28;20448;-69
2023/08/03 02:10:58;;;;;;;7.40;1.93;;;;;;;;;;4911995;28;20884;-67
2023/08/03 02:13:25;;;;;;;2.13;1.57;;;;;;;;;;4911240;28;20445;-67
2023/08/03 02:15:51;;;;;;;2.93;1.40;;;;;;;;;;4912064;28;20448;-69
2023/08/03 02:18:17;;;;;;;5.60;1.67;;;;;;;;;;4912126;28;20488;-72
2023/08/03 02:20:43;;;;;;;3.40;1.20;;;;;;;;;;4913181;29;20421;-67
2023/08/03 02:23:08;;;;;;;2.23;1.30;;;;;;;;;;4911638;28;20923;-67
2023/08/03 02:25:34;;;;;;;7.20;1.33;;;;;;;;;;4912825;28;20428;-66
2023/08/03 02:28:00;;;;;;;4.80;1.30;;;;;;;;;;4910833;28;20777;-68
2023/08/03 02:30:27;;;;;;;2.60;1.60;;;;;;;;;;4910749;28;20445;-68
2023/08/03 02:32:53;;;;;;;9.40;1.80;;;;;;;;;;4911564;28;20618;-68
2023/08/03 02:35:19;;;;;;;2.13;1.00;;;;;;;;;;4912439;28;20435;-67
2023/08/03 02:37:45;;;;;;;2.40;1.27;;;;;;;;;;4917580;28;20975;-69
2023/08/03 02:40:11;;;;;;;3.97;1.50;;;;;;;;;;4912703;29;20787;-68
2023/08/03 02:42:37;;;;;;;1.40;1.30;;;;;;;;;;4911753;28;20495;-67
2023/08/03 02:45:04;;;;;;;4.07;1.57;;;;;;;;;;4911112;29;20420;-67
2023/08/03 02:47:30;;;;;;;5.93;1.50;;;;;;;;;;4912783;29;20448;-66
2023/08/03 02:49:56;;;;;;;4.33;1.60;;;;;;;;;;4912481;28;20551;-67
2023/08/03 02:52:21;;;;;;;2.70;1.23;;;;;;;;;;4910152;29;20547;-67
2023/08/03 02:54:47;;;;;;;12.07;1.87;;;;;;;;;;4911716;28;20439;-67
2023/08/03 02:57:13;;;;;;;3.93;1.93;;;;;;;;;;4912287;29;20501;-71
2023/08/03 02:59:39;;;;;;;3.03;1.17;;;;;;;;;;4910718;28;20437;-68
2023/08/03 03:02:06;;;;;;;3.50;1.37;;;;;;;;;;4910880;29;20220;-69
2023/08/03 03:04:31;;;;;;;6.00;1.30;;;;;;;;;;4910445;29;20487;-68
2023/08/03 03:06:57;;;;;;;6.30;2.70;;;;;;;;;;4910780;29;20860;-72
2023/08/03 03:09:23;;;;;;;6.70;1.77;;;;;;;;;;4912274;29;20475;-68
2023/08/03 03:11:51;;;;;;;1.93;1.20;;;;;;;;;;4911767;29;20429;-71
2023/08/03 03:14:17;;;;;;;2.33;1.07;;;;;;;;;;4909715;29;20460;-69
2023/08/03 03:16:43;;;;;;;3.83;1.87;;;;;;;;;;4910923;29;20439;-67
2023/08/03 03:19:09;;;;;;;0.93;0.90;;;;;;;;;;4911064;28;20445;-70
2023/08/03 03:21:35;;;;;;;5.13;1.10;;;;;;;;;;4911803;28;20441;-67
2023/08/03 03:24:01;;;;;;;3.07;1.10;;;;;;;;;;4910493;28;20972;-68
2023/08/03 03:26:27;;;;;;;1.77;1.17;;;;;;;;;;4911172;29;20449;-68
2023/08/03 03:28:53;;;;;;;5.70;2.20;;;;;;;;;;4911056;28;21003;-69
2023/08/03 03:31:19;;;;;;;5.07;2.07;;;;;;;;;;4910547;28;20448;-69
2023/08/03 03:33:45;;;;;;;5.53;1.57;;;;;;;;;;4910140;29;20531;-68
2023/08/03 03:36:11;;;;;;;7.03;1.87;;;;;;;;;;4910975;28;20511;-67
2023/08/03 03:38:36;;;;;;;12.40;1.60;;;;;;;;;;4911764;28;20535;-66
2023/08/03 03:41:02;;;;;;;4.00;1.60;;;;;;;;;;4911719;28;20451;-68
2023/08/03 03:43:28;;;;;;;6.23;2.27;;;;;;;;;;4909050;28;20488;-70
2023/08/03 03:45:54;;;;;;;7.00;1.63;;;;;;;;;;4913173;28;20441;-66
2023/08/03 03:48:20;;;;;;;2.83;1.23;;;;;;;;;;4908166;28;20535;-68
2023/08/03 03:50:46;;;;;;;4.10;1.70;;;;;;;;;;4911237;28;20459;-68
2023/08/03 03:53:12;;;;;;;2.23;1.20;;;;;;;;;;4911064;29;20447;-69
2023/08/03 03:55:38;;;;;;;4.60;1.27;;;;;;;;;;4910022;29;20447;-67
2023/08/03 03:58:04;;;;;;;3.73;2.10;;;;;;;;;;4910345;29;20503;-67
2023/08/03 04:00:30;;;;;;;6.77;1.80;;;;;;;;;;4909761;29;20945;-69
2023/08/03 04:02:56;;;;;;;1.50;1.33;;;;;;;;;;4908186;28;20508;-69
2023/08/03 04:05:22;;;;;;;2.67;1.87;;;;;;;;;;4908738;28;20546;-69
2023/08/03 04:07:48;;;;;;;5.57;1.70;;;;;;;;;;4909635;28;20441;-72
2023/08/03 04:10:14;;;;;;;3.20;1.40;;;;;;;;;;4907739;28;20542;-71
2023/08/03 04:12:40;;;;;;;9.17;1.80;;;;;;;;;;4908277;28;20455;-68
2023/08/03 04:15:06;;;;;;;7.20;1.60;;;;;;;;;;4908560;28;20453;-68
2023/08/03 04:17:33;;;;;;;2.97;1.50;;;;;;;;;;4908097;28;20496;-68
2023/08/03 04:19:59;;;;;;;6.83;2.07;;;;;;;;;;4909402;28;20437;-67
2023/08/03 04:22:25;;;;;;;3.30;1.40;;;;;;;;;;4907047;28;20538;-68
2023/08/03 04:24:51;;;;;;;3.73;1.30;;;;;;;;;;4905912;28;20473;-66
2023/08/03 04:27:17;;;;;;;6.00;1.50;;;;;;;;;;4891699;28;20436;-70
2023/08/03 04:29:43;;;;;;;1.40;1.00;;;;;;;;;;4907073;28;20441;-66
2023/08/03 04:32:09;;;;;;;3.20;1.30;;;;;;;;;;4908526;28;20448;-70
2023/08/03 04:34:35;;;;;;;2.83;1.00;;;;;;;;;;4907619;28;20445;-68
2023/08/03 04:37:01;;;;;;;2.00;1.40;;;;;;;;;;4908588;28;20448;-67
2023/08/03 04:39:27;;;;;;;1.33;1.20;;;;;;;;;;4910015;29;20810;-67
2023/08/03 04:41:53;;;;;;;4.00;1.10;;;;;;;;;;4909272;28;20484;-70
2023/08/03 04:44:19;;;;;;;3.10;1.30;;;;;;;;;;4907989;28;20444;-70
2023/08/03 04:46:45;;;;;;;3.83;1.07;;;;;;;;;;4909690;28;20952;-68
2023/08/03 04:49:13;;;;;;;9.40;1.43;;;;;;;;;;4909517;29;20800;-67
2023/08/03 04:51:39;;;;;;;2.63;1.10;;;;;;;;;;4909584;29;20520;-68
2023/08/03 04:54:05;;;;;;;0.80;0.80;;;;;;;;;;4908845;28;20536;-66
2023/08/03 04:56:31;;;;;;;3.40;1.30;;;;;;;;;;4908651;28;20441;-68
2023/08/03 04:58:57;;;;;;;4.57;1.10;;;;;;;;;;4908730;29;20445;-72
2023/08/03 05:01:23;;;;;;;3.43;1.57;;;;;;;;;;4908432;28;21078;-67
2023/08/03 05:03:48;;;;;;;1.23;0.80;;;;;;;;;;4909142;28;20936;-69
2023/08/03 05:06:14;;;;;;;2.27;1.10;;;;;;;;;;4906724;28;21183;-71
2023/08/03 05:08:40;;;;;;;1.30;1.10;;;;;;;;;;4909675;28;20803;-68
2023/08/03 05:11:06;;;;;;;4.27;1.90;;;;;;;;;;4909218;28;20445;-67
2023/08/03 05:13:32;;;;;;;7.40;1.40;;;;;;;;;;4907424;29;20464;-67
2023/08/03 05:15:58;;;;;;;7.27;1.83;;;;;;;;;;4908383;28;20444;-66
2023/08/03 05:18:24;;;;;;;2.67;0.80;;;;;;;;;;4910039;28;20468;-69
2023/08/03 05:20:50;;;;;;;4.70;1.20;;;;;;;;;;4911282;28;20448;-66
2023/08/03 05:23:16;;;;;;;8.10;1.20;;;;;;;;;;4911502;29;20608;-71
2023/08/03 05:25:42;;;;;;;1.70;0.90;;;;;;;;;;4910104;28;20437;-69
2023/08/03 05:28:08;;;;;;;8.30;1.50;;;;;;;;;;4912709;28;20448;-72
2023/08/03 05:30:34;;;;;;;1.50;1.40;;;;;;;;;;4913051;28;20979;-69
2023/08/03 05:33:03;;;;;;;3.90;1.07;;;;;;;;;;4912721;28;21014;-66
2023/08/03 05:35:29;;;;;;;1.07;0.50;;;;;;;;;;4911262;28;20452;-68
2023/08/03 05:37:55;;;;;;;3.53;1.10;;;;;;;;;;4912352;28;20531;-66
2023/08/03 05:40:22;;;;;;;1.53;1.30;;;;;;;;;;4915354;28;20479;-70
2023/08/03 05:42:47;;;;;;;4.03;1.42;;;;;;;;;;4910572;28;20565;-61
2023/08/03 05:45:32;;;;;;;4.37;0.90;;;;;;;;;;4911806;29;20440;-67
2023/08/03 05:47:58;;;;;;;5.47;1.30;;;;;;;;;;4911557;28;20437;-67
2023/08/03 05:50:24;;;;;;;2.63;0.60;;;;;;;;;;4911190;28;20952;-70
2023/08/03 05:52:50;;;;;;;6.70;1.30;;;;;;;;;;4912075;28;20451;-66
2023/08/03 05:55:16;;;;;;;2.83;1.17;;;;;;;;;;4912844;29;20424;-66
2023/08/03 05:57:43;;;;;;;1.27;0.70;;;;;;;;;;4910555;28;20802;-66
2023/08/03 06:00:20;;;;;;;2.63;1.00;;;;;;;;;;4912015;28;20494;-69
2023/08/03 06:02:46;;;;;;;2.17;0.73;;;;;;;;;;4911259;29;20527;-68
2023/08/03 06:05:31;;;;;;;2.77;1.00;;;;;;;;;;4911407;28;20448;-66
2023/08/03 06:07:57;;;;;;;3.27;0.80;;;;;;;;;;4911271;28;20461;-68
2023/08/03 06:10:23;;;;;;;6.10;0.93;;;;;;;;;;4911590;29;20436;-67
2023/08/03 06:12:49;;;;;;;1.70;0.90;;;;;;;;;;4911130;29;20432;-69
2023/08/03 06:15:17;;;;;;;2.47;0.80;;;;;;;;;;4911550;28;20424;-68
2023/08/03 06:17:43;;;;;;;1.73;0.83;;;;;;;;;;4910204;28;20489;-67
2023/08/03 06:20:12;;;;;;;2.20;0.90;;;;;;;;;;4912656;28;20432;-67
2023/08/03 06:22:39;;;;;;;5.53;0.83;;;;;;;;;;4911532;28;20527;-69
2023/08/03 06:25:11;;;;;;;4.50;1.10;;;;;;;;;;4909866;28;20468;-68
2023/08/03 06:27:40;;;;;;;2.73;1.17;;;;;;;;;;4909171;28;20463;-67
2023/08/03 06:30:06;;;;;;;4.83;1.07;;;;;;;;;;4912380;29;20472;-67
2023/08/03 06:32:32;;;;;;;0.83;0.83;;;;;;;;;;4911434;28;20436;-67
2023/08/03 06:35:00;;;;;;;1.00;0.70;;;;;;;;;;4910103;28;20456;-69
2023/08/03 06:37:27;;;;;;;0.80;0.70;;;;;;;;;;4909404;28;20539;-67
2023/08/03 06:39:53;;;;;;;0.60;0.60;;;;;;;;;;4910363;28;20448;-67
2023/08/03 06:42:19;;;;;;;3.73;0.83;;;;;;;;;;4910757;28;20485;-68
2023/08/03 06:44:45;;;;;;;7.20;0.63;;;;;;;;;;4909176;28;20502;-69
2023/08/03 06:47:11;;;;;;;2.53;1.03;;;;;;;;;;4909194;28;20961;-67
2023/08/03 06:49:37;;;;;;;1.07;0.57;;;;;;;;;;4911429;28;20448;-67
2023/08/03 06:52:03;;;;;;;0.53;0.50;;;;;;;;;;4911840;28;20425;-71
2023/08/03 06:54:29;;;;;;;0.90;0.77;;;;;;;;;;4910649;28;20486;-70
2023/08/03 06:56:55;;;;;;;0.53;0.53;;;;;;;;;;4910513;28;20452;-67
2023/08/03 06:59:21;;;;;;;4.30;0.80;;;;;;;;;;4909581;28;20448;-67
2023/08/03 07:01:48;;;;;;;0.70;0.70;;;;;;;;;;4911099;28;20432;-67
2023/08/03 07:04:15;;;;;;;1.70;0.70;;;;;;;;;;4910196;28;20440;-67
2023/08/03 07:06:41;;;;;;;4.37;1.00;;;;;;;;;;4911848;28;20920;-69
2023/08/03 07:09:07;;;;;;;4.63;0.90;;;;;;;;;;4910893;28;20997;-68
2023/08/03 07:11:33;;;;;;;0.57;0.57;;;;;;;;;;4911021;28;20472;-69
2023/08/03 07:13:59;;;;;;;4.80;0.60;;;;;;;;;;4910622;28;20433;-68
2023/08/03 07:16:26;;;;;;;0.53;0.50;;;;;;;;;;4906986;28;20443;-67
2023/08/03 07:18:52;;;;;;;3.13;1.43;;;;;;;;;;4910205;28;20492;-72
2023/08/03 07:21:18;;;;;;;1.53;0.87;;;;;;;;;;4907039;28;20430;-68
2023/08/03 07:23:44;;;;;;;2.40;1.10;;;;;;;;;;4907305;28;20584;-70
2023/08/03 07:26:14;;;;;;;0.80;0.80;;;;;;;;;;4909104;28;20433;-67
2023/08/03 07:28:40;;;;;;;3.60;1.13;;;;;;;;;;4911207;28;20500;-67
2023/08/03 07:31:12;;;;;;;1.13;0.90;;;;;;;;;;4911239;28;20528;-69
2023/08/03 07:33:38;;;;;;;0.70;0.70;;;;;;;;;;4911044;28;20452;-69
2023/08/03 07:36:04;;;;;;;2.30;0.97;;;;;;;;;;4910805;28;20483;-69
2023/08/03 07:38:30;;;;;;;7.00;1.30;;;;;;;;;;4907307;28;20448;-71
2023/08/03 07:40:56;;;;;;;2.23;0.80;;;;;;;;;;4909124;28;20433;-68
2023/08/03 07:43:22;;;;;;;0.70;0.70;;;;;;;;;;4908486;29;20575;-70
2023/08/03 07:45:48;;;;;;;2.33;0.90;;;;;;;;;;4901272;28;20516;-69
2023/08/03 07:48:14;;;;;;;7.10;1.20;;;;;;;;;;4892445;29;20440;-60
2023/08/03 07:50:40;;;;;;;3.40;0.77;;;;;;;;;;4903135;28;20422;-70
2023/08/03 07:53:06;;;;;;;2.67;1.33;;;;;;;;;;4900537;29;20941;-67
2023/08/03 07:55:35;;;;;;;2.77;0.60;;;;;;;;;;4906519;28;20959;-67
2023/08/03 07:58:01;;;;;;;1.70;0.80;;;;;;;;;;4910036;28;20840;-69
2023/08/03 08:00:27;;;;;;;1.13;0.50;;;;;;;;;;4905151;28;20457;-68
2023/08/03 08:02:53;;;;;;;2.63;0.93;;;;;;;;;;4904281;29;20500;-69
2023/08/03 08:05:19;;;;;;;5.30;0.70;;;;;;;;;;4908246;28;20434;-72
2023/08/03 08:07:45;;;;;;;1.00;0.90;;;;;;;;;;4901074;28;20445;-69
2023/08/03 08:10:11;;;;;;;1.60;0.97;;;;;;;;;;4892179;28;20418;-67
2023/08/03 08:12:37;;;;;;;1.57;0.80;;;;;;;;;;4905786;28;21194;-66
2023/08/03 08:15:04;;;;;;;3.17;0.77;;;;;;;;;;4905497;28;20477;-66
2023/08/03 08:17:30;;;;;;;1.53;1.13;;;;;;;;;;4900845;28;20560;-67
2023/08/03 08:19:59;;;;;;;4.30;0.63;;;;;;;;;;4894653;29;20524;-68
2023/08/03 08:22:25;;;;;;;3.10;1.00;;;;;;;;;;4908297;28;20535;-67
2023/08/03 08:24:51;;;;;;;3.17;0.97;;;;;;;;;;4909218;28;20474;-71
2023/08/03 08:27:17;;;;;;;5.20;0.77;;;;;;;;;;4908626;28;20463;-67
2023/08/03 08:29:45;;;;;;;1.00;0.53;;;;;;;;;;4910272;28;20440;-67
2023/08/03 08:32:11;;;;;;;3.60;0.77;;;;;;;;;;4909369;28;20483;-67
2023/08/03 08:34:37;;;;;;;1.70;0.60;;;;;;;;;;4908729;28;20544;-67
2023/08/03 08:37:03;;;;;;;3.37;0.80;;;;;;;;;;4910504;28;20522;-67
2023/08/03 08:39:29;;;;;;;0.93;0.70;;;;;;;;;;4909847;28;20929;-66
2023/08/03 08:41:56;;;;;;;1.10;0.90;;;;;;;;;;4910855;28;20475;-67
2023/08/03 08:44:22;;;;;;;2.40;0.70;;;;;;;;;;4910236;28;20786;-66
2023/08/03 08:46:48;;;;;;;0.97;0.70;;;;;;;;;;4911032;28;20939;-66
2023/08/03 08:49:14;;;;;;;9.20;0.90;;;;;;;;;;4910550;28;20435;-67
2023/08/03 08:51:42;;;;;;;5.83;0.70;;;;;;;;;;4909940;28;20428;-68
2023/08/03 08:54:08;;;;;;;2.10;1.67;;;;;;;;;;4910088;28;20939;-69
2023/08/03 08:56:35;;;;;;;1.07;0.53;;;;;;;;;;4910783;28;20429;-67
2023/08/03 08:59:02;;;;;;;2.00;0.90;;;;;;;;;;4910094;28;20452;-67
2023/08/03 09:01:28;;;;;;;3.33;0.97;;;;;;;;;;4910495;28;20413;-71
2023/08/03 09:03:56;;;;;;;2.83;1.10;;;;;;;;;;4910398;28;20758;-69
2023/08/03 09:06:22;;;;;;;2.20;0.77;;;;;;;;;;4909658;28;20432;-66
2023/08/03 09:08:56;;;;;;;0.70;0.70;;;;;;;;;;4910062;29;20534;-71
2023/08/03 09:11:38;;;;;;;1.17;1.03;;;;;;;;;;4910361;28;20453;-67
2023/08/03 09:14:05;;;;;;;8.43;2.50;;;;;;;;;;4908760;28;20456;-68
2023/08/03 09:16:31;;;;;;;0.60;0.60;;;;;;;;;;4909988;28;20433;-68
2023/08/03 09:18:57;;;;;;;5.00;0.73;;;;;;;;;;4910368;28;20492;-68
2023/08/03 09:21:23;;;;;;;0.90;0.90;;;;;;;;;;4910498;29;20419;-67
2023/08/03 09:23:49;;;;;;;1.50;0.77;;;;;;;;;;4908037;28;20491;-69
2023/08/03 09:26:21;;;;;;;1.53;0.50;;;;;;;;;;4909055;28;20789;-69
2023/08/03 09:28:47;;;;;;;2.10;0.70;;;;;;;;;;4910523;28;20456;-69
2023/08/03 09:31:20;;;;;;;1.93;0.50;;;;;;;;;;4912514;28;20433;-69
2023/08/03 09:33:54;;;;;;;5.30;0.67;;;;;;;;;;4910113;28;20441;-67
2023/08/03 09:36:20;;;;;;;7.67;0.70;;;;;;;;;;4910393;28;20512;-68
2023/08/03 09:38:46;;;;;;;1.30;0.60;;;;;;;;;;4910500;28;20495;-66
2023/08/03 09:41:12;;;;;;;3.33;0.80;;;;;;;;;;4911911;28;20482;-67
2023/08/03 09:43:41;;;;;;;5.57;0.63;;;;;;;;;;4895929;28;21067;-66
2023/08/03 09:46:07;;;;;;;0.50;0.50;;;;;;;;;;4909392;28;20514;-67
2023/08/03 09:48:33;;;;;;;5.70;0.70;;;;;;;;;;4912684;28;20448;-67
2023/08/03 09:50:59;;;;;;;0.80;0.80;;;;;;;;;;4912474;28;20503;-67
2023/08/03 09:53:26;;;;;;;1.37;0.50;;;;;;;;;;4909964;29;20826;-67
2023/08/03 09:56:00;;;;;;;3.03;1.37;;;;;;;;;;4910411;29;20932;-70
2023/08/03 09:58:37;;;;;;;4.33;0.70;;;;;;;;;;4910103;28;20941;-67
2023/08/03 10:01:03;;;;;;;0.50;0.50;;;;;;;;;;4908490;28;20471;-67
2023/08/03 10:03:30;;;;;;;3.93;0.80;;;;;;;;;;4904462;28;20977;-66
2023/08/03 10:06:03;;;;;;;1.33;0.60;;;;;;;;;;4911014;29;20773;-67
2023/08/03 10:08:40;;;;;;;1.13;0.67;;;;;;;;;;4911964;29;20444;-70
2023/08/03 10:11:07;;;;;;;0.70;0.70;;;;;;;;;;4912397;28;20467;-67
2023/08/03 10:13:34;;;;;;;1.00;1.00;;;;;;;;;;4911346;29;20616;-68
2023/08/03 10:16:03;;;;;;;0.60;0.60;;;;;;;;;;4912201;28;20444;-67
2023/08/03 10:18:35;;;;;;;2.60;0.50;;;;;;;;;;4913340;28;21000;-66
2023/08/03 10:21:02;;;;;;;2.33;0.67;;;;;;;;;;4913477;28;20485;-67
2023/08/03 10:23:28;;;;;;;0.53;0.53;;;;;;;;;;4913061;28;20492;-66
2023/08/03 10:25:59;;;;;;;2.73;0.60;;;;;;;;;;4911938;28;20443;-67
2023/08/03 10:28:26;;;;;;;2.43;0.70;;;;;;;;;;4912075;29;20971;-68
2023/08/03 10:31:11;;;;;;;1.70;0.50;;;;;;;;;;4910058;28;20495;-67
2023/08/03 10:33:49;;;;;;;0.90;0.90;;;;;;;;;;4907294;29;20484;-66
2023/08/03 10:36:30;;;;;;;3.37;0.67;;;;;;;;;;4907019;28;20575;-66
2023/08/03 10:38:57;;;;;;;0.80;0.80;;;;;;;;;;4909525;29;20968;-69
2023/08/03 10:41:24;;;;;;;1.23;0.47;;;;;;;;;;4910872;28;20242;-70
2023/08/03 10:44:09;;;;;;;2.37;0.60;;;;;;;;;;4909221;28;20492;-70
2023/08/03 10:46:37;;;;;;;0.70;0.70;;;;;;;;;;4908355;28;20897;-68
2023/08/03 10:49:36;;;;;;;0.77;0.47;;;;;;;;;;4912581;28;20476;-68
2023/08/03 10:52:22;;;;;;;4.27;1.87;;;;;;;;;;4932419;28;20472;-64
2023/08/03 10:54:49;;;;;;;3.50;0.60;;;;;;;;;;4921305;28;20499;-61
2023/08/03 10:57:25;;;;;;;7.63;0.73;;;;;;;;;;4910492;28;20440;-69
2023/08/03 11:00:00;;;;;;;1.90;0.87;;;;;;;;;;4910977;28;20999;-68
2023/08/03 11:02:33;;;;;;;0.50;0.50;;;;;;;;;;4911604;28;20484;-67
2023/08/03 11:05:00;;;;;;;1.13;1.03;;;;;;;;;;4909799;28;20468;-67
2023/08/03 11:07:30;;;;;;;0.90;0.90;;;;;;;;;;4911336;28;20488;-67
2023/08/03 11:09:56;;;;;;;2.20;1.08;;;;;;;;;;4910608;28;20435;-67
2023/08/03 11:12:23;;;;;;;2.67;0.50;;;;;;;;;;4911138;28;20212;-68
2023/08/03 11:14:50;;;;;;;0.93;0.60;;;;;;;;;;4912775;28;20433;-69
2023/08/03 11:17:19;;;;;;;0.93;0.43;;;;;;;;;;4909776;28;20885;-66
2023/08/03 11:19:45;;;;;;;1.37;0.50;;;;;;;;;;4906669;28;20790;-68
2023/08/03 11:22:12;;;;;;;0.43;0.43;;;;;;;;;;4907510;28;20515;-67
2023/08/03 11:24:38;;;;;;;0.67;0.50;;;;;;;;;;4909318;28;20428;-70
2023/08/03 11:27:04;;;;;;;0.60;0.60;;;;;;;;;;4907652;28;20924;-73
2023/08/03 11:29:31;;;;;;;0.90;0.43;;;;;;;;;;4909939;28;20441;-68
2023/08/03 11:31:57;;;;;;;0.70;0.70;;;;;;;;;;4909091;28;20468;-67
2023/08/03 11:34:24;;;;;;;0.70;0.50;;;;;;;;;;4907474;28;20449;-69
2023/08/03 11:36:51;;;;;;;0.40;0.40;;;;;;;;;;4909535;28;20452;-70
2023/08/03 11:39:17;;;;;;;2.10;0.50;;;;;;;;;;4910929;28;20988;-67
2023/08/03 11:41:44;;;;;;;0.93;0.57;;;;;;;;;;4909456;28;20815;-71
2023/08/03 11:44:10;;;;;;;0.63;0.50;;;;;;;;;;4909965;28;20824;-71
2023/08/03 11:46:36;;;;;;;0.80;0.57;;;;;;;;;;4908863;28;20475;-71
2023/08/03 11:49:03;;;;;;;0.40;0.40;;;;;;;;;;4901597;28;20457;-71
2023/08/03 11:51:31;;;;;;;0.40;0.40;;;;;;;;;;4912794;28;20451;-72
2023/08/03 11:54:01;;;;;;;0.93;0.40;;;;;;;;;;4911133;28;20957;-70
2023/08/03 11:56:27;;;;;;;0.30;0.30;;;;;;;;;;4912029;28;20413;-70
2023/08/03 11:58:53;;;;;;;4.13;0.70;;;;;;;;;;4910479;28;20807;-73
2023/08/03 12:01:24;;;;;;;2.43;0.83;;;;;;;;;;4911001;28;20837;-70
2023/08/03 12:03:50;;;;;;;3.63;0.50;;;;;;;;;;4910642;28;20578;-70
2023/08/03 12:06:16;;;;;;;0.80;0.40;;;;;;;;;;4910341;28;20479;-71
2023/08/03 12:08:43;;;;;;;0.73;0.70;;;;;;;;;;4908598;28;20452;-68
2023/08/03 12:11:09;;;;;;;7.90;0.50;;;;;;;;;;4910615;28;20437;-68
2023/08/03 12:13:34;;;;;;;0.80;0.60;;;;;;;;;;4908981;28;20437;-68
2023/08/03 12:16:01;;;;;;;1.87;0.80;;;;;;;;;;4910625;28;20532;-68
2023/08/03 12:18:27;;;;;;;1.60;0.40;;;;;;;;;;4906530;28;20519;-68
2023/08/03 12:20:53;;;;;;;1.80;0.50;;;;;;;;;;4909503;28;20506;-67
2023/08/03 12:23:19;;;;;;;0.40;0.40;;;;;;;;;;4908382;28;20496;-68
2023/08/03 12:25:45;;;;;;;3.40;0.70;;;;;;;;;;4910740;28;20483;-68
2023/08/03 12:28:12;;;;;;;0.50;0.50;;;;;;;;;;4910448;28;20445;-68
2023/08/03 12:30:38;;;;;;;1.50;0.53;;;;;;;;;;4910391;29;20445;-68
2023/08/03 12:33:06;;;;;;;1.63;0.77;;;;;;;;;;4910290;29;20447;-67
2023/08/03 12:35:32;;;;;;;1.60;0.73;;;;;;;;;;4910674;28;20482;-67
2023/08/03 12:37:58;;;;;;;2.30;0.87;;;;;;;;;;4911259;28;21014;-67
2023/08/03 12:40:24;;;;;;;0.90;0.90;;;;;;;;;;4910984;28;21931;-68
2023/08/03 12:42:50;;;;;;;0.73;0.73;;;;;;;;;;4908912;28;20889;-68
2023/08/03 12:45:16;;;;;;;1.80;0.60;;;;;;;;;;4906841;29;20444;-67
2023/08/03 12:47:42;;;;;;;0.93;0.40;;;;;;;;;;4911377;28;20940;-68
2023/08/03 12:50:08;;;;;;;3.50;0.40;;;;;;;;;;4910862;28;20444;-68
2023/08/03 12:52:34;;;;;;;0.50;0.50;;;;;;;;;;4905667;28;20523;-68
2023/08/03 12:55:00;;;;;;;0.63;0.40;;;;;;;;;;4910006;28;20499;-68
2023/08/03 12:57:26;;;;;;;0.57;0.57;;;;;;;;;;4899900;28;20436;-69
2023/08/03 12:59:52;;;;;;;0.40;0.40;;;;;;;;;;4911213;28;20789;-68
2023/08/03 13:02:18;;;;;;;6.73;0.60;;;;;;;;;;4906890;28;20515;-67
2023/08/03 13:04:50;;;;;;;1.57;0.70;;;;;;;;;;4911458;28;20491;-68
2023/08/03 13:07:16;;;;;;;1.70;0.70;;;;;;;;;;4914535;28;20516;-69
2023/08/03 13:09:42;;;;;;;1.33;1.33;;;;;;;;;;4910688;28;20432;-68
2023/08/03 13:12:09;;;;;;;0.50;0.40;;;;;;;;;;4910037;28;20440;-67
2023/08/03 13:14:35;;;;;;;0.80;0.50;;;;;;;;;;4909445;28;20971;-67
2023/08/03 13:17:01;;;;;;;1.20;0.73;;;;;;;;;;4909907;28;20425;-67
2023/08/03 13:19:28;;;;;;;4.03;0.50;;;;;;;;;;4910017;28;20432;-68
2023/08/03 13:21:54;;;;;;;0.53;0.53;;;;;;;;;;4910059;29;20437;-68
2023/08/03 13:24:20;;;;;;;0.67;0.50;;;;;;;;;;4909764;28;20460;-68
2023/08/03 13:26:46;;;;;;;1.43;0.50;;;;;;;;;;4908853;28;20444;-69
2023/08/03 13:29:15;;;;;;;1.60;0.50;;;;;;;;;;4909858;28;20472;-68
2023/08/03 13:31:41;;;;;;;0.40;0.40;;;;;;;;;;4904726;28;20444;-67
2023/08/03 13:34:07;;;;;;;0.77;0.60;;;;;;;;;;4909485;28;20440;-69
2023/08/03 13:36:33;;;;;;;0.50;0.50;;;;;;;;;;4910100;28;20444;-71
2023/08/03 13:38:59;;;;;;;1.37;0.60;;;;;;;;;;4908489;28;20960;-68
2023/08/03 13:41:25;;;;;;;1.13;0.97;;;;;;;;;;4907743;28;20888;-67
2023/08/03 13:43:51;;;;;;;4.57;0.83;;;;;;;;;;4907717;28;20499;-68
2023/08/03 13:46:17;;;;;;;1.33;0.60;;;;;;;;;;4910908;28;20568;-69
2023/08/03 13:48:43;;;;;;;0.93;0.93;;;;;;;;;;4905888;28;20456;-68
2023/08/03 13:51:09;;;;;;;0.43;0.43;;;;;;;;;;4906358;29;20792;-69
2023/08/03 13:53:35;;;;;;;1.20;0.60;;;;;;;;;;4906128;28;21570;-68
2023/08/03 13:56:01;;;;;;;1.13;0.50;;;;;;;;;;4907331;28;20448;-71
2023/08/03 13:58:27;;;;;;;0.50;0.50;;;;;;;;;;4906843;28;20458;-71
2023/08/03 14:00:53;;;;;;;0.33;0.33;;;;;;;;;;4906783;29;20444;-69
2023/08/03 14:03:19;;;;;;;0.80;0.80;;;;;;;;;;4905371;28;20634;-70
2023/08/03 14:05:45;;;;;;;1.27;0.77;;;;;;;;;;4907065;28;20442;-69
2023/08/03 14:08:11;;;;;;;2.20;1.07;;;;;;;;;;4907576;28;20524;-68
2023/08/03 14:10:37;;;;;;;0.40;0.40;;;;;;;;;;4907474;28;20440;-68
2023/08/03 14:13:03;;;;;;;3.23;0.60;;;;;;;;;;4905552;28;20444;-68
2023/08/03 14:15:29;;;;;;;0.67;0.60;;;;;;;;;;4905537;28;20514;-69
2023/08/03 14:17:55;;;;;;;0.67;0.60;;;;;;;;;;4903162;28;20573;-70
2023/08/03 14:20:21;;;;;;;1.10;0.67;;;;;;;;;;4906893;29;20464;-68
2023/08/03 14:22:47;;;;;;;2.73;0.50;;;;;;;;;;4906032;28;20492;-68
2023/08/03 14:25:16;;;;;;;0.40;0.40;;;;;;;;;;4905753;28;20206;-68
2023/08/03 14:27:45;;;;;;;0.40;0.40;;;;;;;;;;4905051;28;21138;-69
2023/08/03 14:30:11;;;;;;;0.40;0.40;;;;;;;;;;4906891;28;21746;-70
2023/08/03 14:32:38;;;;;;;0.53;0.53;;;;;;;;;;4903914;28;20795;-69
2023/08/03 14:35:04;;;;;;;1.40;0.50;;;;;;;;;;4904413;28;20795;-69
2023/08/03 14:37:30;;;;;;;0.60;0.60;;;;;;;;;;4904272;28;20449;-69
2023/08/03 14:39:56;;;;;;;1.23;0.70;;;;;;;;;;4905035;28;20988;-71
2023/08/03 14:42:22;;;;;;;1.33;0.80;;;;;;;;;;4905205;29;20533;-68